Time;durP1;ratioP1;P1;durP2;ratioP2;P2;SDS_P1;SDS_P2;PMS_P1;PMS_P2;Temp;Humidity;BMP_temperature;BMP_pressure;BME280_temperature;BME280_humidity;BME280_pressure;Samples;Min_cycle;Max_cycle;Signal;HPM_P1;HPM_P2
2023/07/31 06:34:12;;;;;;;4.53;1.73;;;;;;;;;;5238371;23;20044;-72
2023/07/31 06:36:38;;;;;;;6.80;2.10;;;;;;;;;;4953085;28;20394;-72
2023/07/31 06:39:05;;;;;;;5.45;1.90;;;;;;;;;;4953709;29;20035;-72
2023/07/31 06:41:31;;;;;;;6.75;2.22;;;;;;;;;;4953926;29;20042;-72
2023/07/31 06:43:57;;;;;;;7.43;1.92;;;;;;;;;;4954318;29;20031;-71
2023/07/31 06:46:24;;;;;;;8.48;2.17;;;;;;;;;;4954900;28;20054;-72
2023/07/31 06:48:50;;;;;;;8.18;2.00;;;;;;;;;;4954836;28;20033;-72
2023/07/31 06:51:16;;;;;;;8.35;2.33;;;;;;;;;;4954226;29;20030;-72
2023/07/31 06:53:45;;;;;;;5.68;1.90;;;;;;;;;;4954017;28;20034;-72
2023/07/31 06:56:11;;;;;;;7.30;2.22;;;;;;;;;;4953699;29;20099;-72
2023/07/31 06:58:37;;;;;;;6.22;2.25;;;;;;;;;;4954196;29;20031;-72
2023/07/31 07:01:03;;;;;;;8.35;2.40;;;;;;;;;;4953461;29;20034;-72
2023/07/31 07:03:30;;;;;;;7.05;2.13;;;;;;;;;;4954317;29;20030;-72
2023/07/31 07:05:56;;;;;;;5.05;1.90;;;;;;;;;;4953782;29;20023;-72
2023/07/31 07:08:23;;;;;;;4.82;1.95;;;;;;;;;;4954442;29;20097;-71
2023/07/31 07:10:49;;;;;;;7.55;1.90;;;;;;;;;;4954058;29;20103;-71
2023/07/31 07:13:16;;;;;;;5.68;2.05;;;;;;;;;;4935066;29;20024;-71
2023/07/31 07:15:42;;;;;;;4.03;1.80;;;;;;;;;;4940427;29;20019;-71
2023/07/31 07:18:10;;;;;;;10.05;2.10;;;;;;;;;;4952673;28;20016;-71
2023/07/31 07:20:36;;;;;;;6.22;2.05;;;;;;;;;;4952069;28;20039;-71
2023/07/31 07:23:03;;;;;;;8.10;1.83;;;;;;;;;;4936684;28;20400;-71
2023/07/31 07:25:29;;;;;;;18.98;2.17;;;;;;;;;;4934703;29;20035;-71
2023/07/31 07:27:55;;;;;;;8.05;2.13;;;;;;;;;;4934021;29;20032;-72
2023/07/31 07:30:23;;;;;;;6.05;2.05;;;;;;;;;;4934675;29;20031;-71
2023/07/31 07:32:49;;;;;;;14.13;2.25;;;;;;;;;;4934468;29;20051;-72
2023/07/31 07:35:16;;;;;;;8.70;2.15;;;;;;;;;;4948637;29;20098;-71
2023/07/31 07:37:42;;;;;;;6.90;2.15;;;;;;;;;;4946941;29;20093;-72
2023/07/31 07:40:09;;;;;;;4.60;2.30;;;;;;;;;;4939365;29;20481;-71
2023/07/31 07:42:35;;;;;;;5.35;2.13;;;;;;;;;;4933357;29;20593;-72
2023/07/31 07:45:01;;;;;;;5.72;2.40;;;;;;;;;;4935838;29;20023;-72
2023/07/31 07:47:28;;;;;;;6.88;2.80;;;;;;;;;;4938847;29;20024;-72
2023/07/31 07:49:54;;;;;;;9.20;2.90;;;;;;;;;;4938124;29;20028;-72
2023/07/31 07:52:20;;;;;;;5.68;2.22;;;;;;;;;;4953571;29;20019;-72
2023/07/31 07:54:47;;;;;;;7.45;2.47;;;;;;;;;;4956741;28;20027;-72
2023/07/31 07:57:13;;;;;;;8.40;2.30;;;;;;;;;;4955469;29;20552;-71
2023/07/31 07:59:39;;;;;;;9.32;2.35;;;;;;;;;;4957077;29;20315;-72
2023/07/31 08:02:06;;;;;;;6.75;2.30;;;;;;;;;;4956787;29;20094;-72
2023/07/31 08:04:32;;;;;;;5.80;1.70;;;;;;;;;;4956686;29;20029;-71
2023/07/31 08:06:58;;;;;;;10.55;2.60;;;;;;;;;;4957071;29;20085;-71
2023/07/31 08:09:24;;;;;;;6.55;2.33;;;;;;;;;;4956973;29;20033;-72
2023/07/31 08:11:51;;;;;;;5.43;2.10;;;;;;;;;;4955956;29;20041;-72
2023/07/31 08:14:17;;;;;;;7.53;2.47;;;;;;;;;;4955777;28;20033;-72
2023/07/31 08:16:44;;;;;;;6.63;2.00;;;;;;;;;;4955481;29;20035;-73
2023/07/31 08:19:10;;;;;;;5.00;2.17;;;;;;;;;;4956314;29;20456;-73
2023/07/31 08:21:36;;;;;;;6.18;2.45;;;;;;;;;;4955954;28;20399;-72
2023/07/31 08:24:03;;;;;;;5.22;2.50;;;;;;;;;;4956857;28;20389;-72
2023/07/31 08:26:29;;;;;;;7.50;2.20;;;;;;;;;;4955941;29;20410;-76
2023/07/31 08:28:55;;;;;;;11.00;2.40;;;;;;;;;;4956461;28;20023;-73
2023/07/31 08:31:22;;;;;;;3.90;2.15;;;;;;;;;;4956694;28;20027;-73
2023/07/31 08:33:48;;;;;;;6.93;2.10;;;;;;;;;;4954855;29;20054;-74
2023/07/31 08:36:14;;;;;;;5.55;1.95;;;;;;;;;;4961005;28;20398;-73
2023/07/31 08:38:41;;;;;;;5.70;2.08;;;;;;;;;;4958419;28;20498;-73
2023/07/31 08:41:07;;;;;;;7.80;2.63;;;;;;;;;;4956566;29;20111;-74
2023/07/31 08:43:34;;;;;;;9.60;2.45;;;;;;;;;;4956155;29;20550;-74
2023/07/31 08:46:00;;;;;;;11.63;2.40;;;;;;;;;;4956464;29;20041;-73
2023/07/31 08:48:27;;;;;;;5.53;2.25;;;;;;;;;;4956651;28;20050;-74
2023/07/31 08:50:54;;;;;;;10.75;2.40;;;;;;;;;;4956469;29;20050;-78
2023/07/31 08:53:20;;;;;;;8.93;2.65;;;;;;;;;;4955767;28;20027;-77
2023/07/31 08:55:47;;;;;;;5.88;2.28;;;;;;;;;;4937709;29;20441;-71
2023/07/31 08:58:14;;;;;;;5.88;2.42;;;;;;;;;;4936378;29;20389;-72
2023/07/31 09:00:41;;;;;;;6.20;2.15;;;;;;;;;;4950601;29;20027;-72
2023/07/31 09:03:14;;;;;;;7.53;2.25;;;;;;;;;;4956041;28;20019;-72
2023/07/31 09:05:42;;;;;;;4.78;2.47;;;;;;;;;;4955681;29;20420;-72
2023/07/31 09:08:10;;;;;;;7.38;2.05;;;;;;;;;;4956211;29;20030;-73
2023/07/31 09:10:40;;;;;;;5.00;2.13;;;;;;;;;;4956071;29;20057;-72
2023/07/31 09:13:06;;;;;;;4.72;2.00;;;;;;;;;;4954683;29;20395;-71
2023/07/31 09:15:34;;;;;;;4.53;2.33;;;;;;;;;;4955536;29;20039;-72
2023/07/31 09:18:01;;;;;;;4.55;2.20;;;;;;;;;;4955542;29;20388;-70
2023/07/31 09:20:27;;;;;;;5.30;2.10;;;;;;;;;;4954028;28;20494;-72
2023/07/31 09:22:55;;;;;;;4.43;1.77;;;;;;;;;;4955205;28;20020;-72
2023/07/31 09:25:25;;;;;;;4.88;2.25;;;;;;;;;;4950649;28;20015;-72
2023/07/31 09:27:54;;;;;;;5.65;2.00;;;;;;;;;;4936223;29;20046;-73
2023/07/31 09:30:21;;;;;;;3.60;2.13;;;;;;;;;;4934122;29;20026;-73
2023/07/31 09:32:48;;;;;;;3.65;1.80;;;;;;;;;;4936221;29;20050;-73
2023/07/31 09:35:20;;;;;;;7.10;2.10;;;;;;;;;;4936526;29;20035;-73
2023/07/31 09:37:50;;;;;;;5.25;2.22;;;;;;;;;;4951002;29;20043;-73
2023/07/31 09:40:30;;;;;;;6.20;2.00;;;;;;;;;;4955090;28;20051;-73
2023/07/31 09:43:03;;;;;;;11.63;2.35;;;;;;;;;;4954475;28;20037;-71
2023/07/31 09:45:30;;;;;;;4.15;2.15;;;;;;;;;;4953577;28;20500;-71
2023/07/31 09:47:57;;;;;;;5.05;2.28;;;;;;;;;;4954704;29;20540;-71
2023/07/31 09:50:24;;;;;;;3.65;1.90;;;;;;;;;;4953618;28;20027;-68
2023/07/31 09:52:51;;;;;;;4.00;2.10;;;;;;;;;;4955371;28;20039;-68
2023/07/31 09:55:18;;;;;;;4.22;2.10;;;;;;;;;;4955317;28;20035;-68
2023/07/31 09:57:46;;;;;;;4.15;2.13;;;;;;;;;;4952832;29;20031;-68
2023/07/31 10:00:13;;;;;;;3.83;2.10;;;;;;;;;;4953945;28;20105;-68
2023/07/31 10:02:40;;;;;;;3.15;1.85;;;;;;;;;;4954053;29;20023;-68
2023/07/31 10:05:07;;;;;;;5.70;2.30;;;;;;;;;;4944834;29;20082;-67
2023/07/31 10:07:40;;;;;;;3.85;2.00;;;;;;;;;;4952987;28;20023;-67
2023/07/31 10:10:09;;;;;;;5.75;2.20;;;;;;;;;;4953908;29;20035;-67
2023/07/31 10:12:36;;;;;;;4.38;2.30;;;;;;;;;;4954376;29;20027;-68
2023/07/31 10:15:03;;;;;;;3.22;1.92;;;;;;;;;;4939225;29;20391;-66
2023/07/31 10:17:30;;;;;;;2.55;1.85;;;;;;;;;;4934680;29;20117;-68
2023/07/31 10:19:59;;;;;;;3.13;2.00;;;;;;;;;;4935027;29;20039;-68
2023/07/31 10:22:25;;;;;;;3.85;2.47;;;;;;;;;;4935129;29;20040;-68
2023/07/31 10:24:52;;;;;;;3.30;2.20;;;;;;;;;;4935090;29;20551;-67
2023/07/31 10:27:19;;;;;;;6.55;2.03;;;;;;;;;;4934277;29;20028;-67
2023/07/31 10:29:47;;;;;;;2.60;2.03;;;;;;;;;;4934342;29;20594;-69
2023/07/31 10:32:15;;;;;;;5.93;2.20;;;;;;;;;;4934189;29;20031;-68
2023/07/31 10:34:41;;;;;;;4.50;2.47;;;;;;;;;;4934775;29;20054;-67
2023/07/31 10:37:24;;;;;;;4.20;2.10;;;;;;;;;;4945643;29;20038;-67
2023/07/31 10:39:58;;;;;;;5.57;2.00;;;;;;;;;;4953681;29;20061;-68
2023/07/31 10:42:34;;;;;;;4.45;2.33;;;;;;;;;;4939512;28;20038;-68
2023/07/31 10:45:02;;;;;;;4.30;2.13;;;;;;;;;;4934680;29;20019;-69
2023/07/31 10:47:28;;;;;;;3.38;2.10;;;;;;;;;;4934490;29;20030;-68
2023/07/31 10:50:11;;;;;;;5.45;2.50;;;;;;;;;;4934460;29;20024;-68
2023/07/31 10:52:37;;;;;;;2.97;2.00;;;;;;;;;;4934916;29;20488;-70
2023/07/31 10:55:16;;;;;;;4.18;2.10;;;;;;;;;;4948099;29;20025;-70
2023/07/31 10:57:47;;;;;;;3.30;2.05;;;;;;;;;;4953741;29;20023;-70
2023/07/31 11:00:21;;;;;;;3.72;2.08;;;;;;;;;;4953724;29;20035;-70
2023/07/31 11:03:06;;;;;;;3.20;2.20;;;;;;;;;;4953861;29;20496;-69
2023/07/31 11:05:49;;;;;;;2.67;1.90;;;;;;;;;;4953482;29;20038;-68
2023/07/31 11:08:16;;;;;;;4.15;2.35;;;;;;;;;;4953715;29;20027;-68
2023/07/31 11:10:43;;;;;;;3.95;2.00;;;;;;;;;;4953345;29;20101;-67
2023/07/31 11:13:09;;;;;;;2.70;2.00;;;;;;;;;;4954109;29;20030;-67
2023/07/31 11:15:36;;;;;;;2.20;1.98;;;;;;;;;;4954135;28;20031;-68
2023/07/31 11:18:05;;;;;;;3.83;2.17;;;;;;;;;;4953848;28;20033;-68
2023/07/31 11:20:32;;;;;;;2.80;2.10;;;;;;;;;;4953873;29;20035;-66
2023/07/31 11:23:00;;;;;;;4.47;1.88;;;;;;;;;;4953785;28;20030;-68
2023/07/31 11:25:26;;;;;;;2.65;2.00;;;;;;;;;;4953675;29;20041;-67
2023/07/31 11:27:54;;;;;;;3.10;2.00;;;;;;;;;;4952244;29;20023;-68
2023/07/31 11:30:20;;;;;;;3.25;2.17;;;;;;;;;;4944347;29;20023;-68
2023/07/31 11:32:47;;;;;;;3.42;2.30;;;;;;;;;;4934590;29;20040;-67
2023/07/31 11:35:13;;;;;;;2.13;1.70;;;;;;;;;;4934325;29;20019;-67
2023/07/31 11:37:41;;;;;;;4.22;1.92;;;;;;;;;;4954113;28;20042;-68
2023/07/31 11:40:08;;;;;;;3.45;1.58;;;;;;;;;;4953004;29;20043;-67
2023/07/31 11:42:38;;;;;;;2.85;2.00;;;;;;;;;;4953204;29;20510;-68
2023/07/31 11:45:04;;;;;;;2.58;1.88;;;;;;;;;;4953109;28;20062;-68
2023/07/31 11:47:34;;;;;;;2.58;1.95;;;;;;;;;;4951986;29;20039;-67
2023/07/31 11:50:01;;;;;;;2.45;1.92;;;;;;;;;;4953144;29;20034;-67
2023/07/31 11:52:29;;;;;;;3.65;1.90;;;;;;;;;;4952955;29;20031;-67
2023/07/31 11:54:56;;;;;;;3.03;2.00;;;;;;;;;;4952572;29;20027;-67
2023/07/31 11:57:22;;;;;;;1.90;1.70;;;;;;;;;;4953146;28;20491;-67
2023/07/31 11:59:49;;;;;;;2.85;1.80;;;;;;;;;;4953186;29;20480;-67
2023/07/31 12:02:17;;;;;;;2.53;1.70;;;;;;;;;;4953156;29;20034;-67
2023/07/31 12:04:43;;;;;;;2.83;1.85;;;;;;;;;;4951593;28;20039;-68
2023/07/31 12:07:10;;;;;;;2.85;1.83;;;;;;;;;;4950770;29;20074;-69
2023/07/31 12:09:36;;;;;;;6.85;1.95;;;;;;;;;;4951790;29;20046;-68
2023/07/31 12:12:03;;;;;;;2.72;1.70;;;;;;;;;;4952113;28;20030;-68
2023/07/31 12:14:30;;;;;;;8.07;2.10;;;;;;;;;;4952712;29;20522;-68
2023/07/31 12:16:57;;;;;;;2.88;1.83;;;;;;;;;;4952661;28;20011;-68
2023/07/31 12:19:27;;;;;;;5.30;1.92;;;;;;;;;;4951967;29;20385;-69
2023/07/31 12:21:54;;;;;;;4.03;2.08;;;;;;;;;;4951801;29;20030;-68
2023/07/31 12:24:20;;;;;;;7.32;2.10;;;;;;;;;;4950219;29;20036;-68
2023/07/31 12:26:47;;;;;;;4.78;2.10;;;;;;;;;;4952771;29;20395;-68
2023/07/31 12:29:13;;;;;;;5.13;1.48;;;;;;;;;;4951921;28;20039;-69
2023/07/31 12:31:41;;;;;;;4.03;1.92;;;;;;;;;;4954875;28;20550;-69
2023/07/31 12:34:18;;;;;;;3.15;1.83;;;;;;;;;;4955840;29;20047;-68
2023/07/31 12:36:45;;;;;;;4.30;1.73;;;;;;;;;;4956972;28;20019;-68
2023/07/31 12:39:11;;;;;;;6.60;2.40;;;;;;;;;;4955328;28;20920;-68
2023/07/31 12:41:37;;;;;;;3.22;1.80;;;;;;;;;;4949571;29;20461;-71
2023/07/31 12:44:04;;;;;;;5.32;2.30;;;;;;;;;;4936347;29;20031;-71
2023/07/31 12:46:30;;;;;;;4.43;1.67;;;;;;;;;;4936299;29;20035;-70
2023/07/31 12:48:57;;;;;;;2.40;1.95;;;;;;;;;;4936850;29;20394;-71
2023/07/31 12:51:23;;;;;;;8.15;2.10;;;;;;;;;;4936918;29;20019;-71
2023/07/31 12:53:49;;;;;;;3.65;1.83;;;;;;;;;;4936141;29;20024;-70
2023/07/31 12:56:17;;;;;;;3.08;1.95;;;;;;;;;;4936199;29;20366;-71
2023/07/31 12:58:43;;;;;;;3.65;1.65;;;;;;;;;;4936682;29;20028;-71
2023/07/31 13:01:10;;;;;;;6.60;2.03;;;;;;;;;;4936779;29;20040;-71
2023/07/31 13:03:36;;;;;;;3.03;1.52;;;;;;;;;;4936646;29;20036;-71
2023/07/31 13:06:02;;;;;;;3.83;2.05;;;;;;;;;;4936481;29;20032;-71
2023/07/31 13:08:29;;;;;;;3.05;1.90;;;;;;;;;;4936093;29;20032;-71
2023/07/31 13:10:55;;;;;;;2.83;1.80;;;;;;;;;;4936331;29;20390;-71
2023/07/31 13:13:22;;;;;;;3.20;1.35;;;;;;;;;;4936239;29;20019;-71
2023/07/31 13:15:48;;;;;;;2.78;1.77;;;;;;;;;;4936972;29;20032;-71
2023/07/31 13:18:14;;;;;;;4.03;1.83;;;;;;;;;;4936321;29;20032;-71
2023/07/31 13:20:41;;;;;;;2.35;1.60;;;;;;;;;;4936557;29;20036;-71
2023/07/31 13:23:07;;;;;;;3.38;2.05;;;;;;;;;;4939818;29;20031;-70
2023/07/31 13:25:33;;;;;;;3.65;1.75;;;;;;;;;;4955616;29;20035;-71
2023/07/31 13:27:59;;;;;;;2.42;1.83;;;;;;;;;;4941424;29;20019;-70
2023/07/31 13:30:27;;;;;;;5.18;1.70;;;;;;;;;;4936476;29;20366;-70
2023/07/31 13:32:53;;;;;;;4.55;1.73;;;;;;;;;;4936588;29;20039;-71
2023/07/31 13:35:20;;;;;;;2.53;1.85;;;;;;;;;;4936464;29;20034;-71
2023/07/31 13:37:46;;;;;;;3.10;1.77;;;;;;;;;;4950756;29;20031;-71
2023/07/31 13:40:13;;;;;;;4.07;1.83;;;;;;;;;;4954298;29;20047;-70
2023/07/31 13:42:39;;;;;;;4.88;1.80;;;;;;;;;;4955351;28;20037;-70
2023/07/31 13:45:06;;;;;;;3.72;1.67;;;;;;;;;;4955508;28;20510;-71
2023/07/31 13:47:33;;;;;;;3.85;1.63;;;;;;;;;;4942800;29;20031;-71
2023/07/31 13:49:59;;;;;;;5.63;2.00;;;;;;;;;;4935673;29;20024;-70
2023/07/31 13:52:25;;;;;;;3.13;2.03;;;;;;;;;;4935469;29;20030;-71
2023/07/31 13:54:52;;;;;;;2.80;1.67;;;;;;;;;;4937237;29;20031;-71
2023/07/31 13:57:18;;;;;;;4.28;1.90;;;;;;;;;;4953813;29;20041;-71
2023/07/31 13:59:44;;;;;;;3.85;1.75;;;;;;;;;;4954955;28;20542;-71
2023/07/31 14:02:10;;;;;;;2.72;1.77;;;;;;;;;;4954274;29;20050;-71
2023/07/31 14:04:37;;;;;;;6.55;2.00;;;;;;;;;;4954663;29;20046;-71
2023/07/31 14:07:04;;;;;;;2.78;1.90;;;;;;;;;;4954184;29;20490;-71
2023/07/31 14:09:30;;;;;;;2.83;1.67;;;;;;;;;;4953876;29;20050;-70
2023/07/31 14:11:57;;;;;;;5.95;2.00;;;;;;;;;;4954303;28;20395;-70
2023/07/31 14:14:23;;;;;;;2.38;1.73;;;;;;;;;;4954582;29;20039;-70
2023/07/31 14:16:50;;;;;;;2.42;1.77;;;;;;;;;;4952766;29;20027;-70
2023/07/31 14:19:16;;;;;;;3.20;1.90;;;;;;;;;;4953808;28;20047;-70
2023/07/31 14:21:42;;;;;;;4.97;1.90;;;;;;;;;;4953900;29;20803;-71
2023/07/31 14:24:09;;;;;;;3.53;1.98;;;;;;;;;;4953224;28;20488;-71
2023/07/31 14:26:35;;;;;;;3.70;1.85;;;;;;;;;;4954016;29;20039;-71
2023/07/31 14:29:01;;;;;;;3.42;2.15;;;;;;;;;;4953468;28;20023;-71
2023/07/31 14:31:28;;;;;;;3.35;2.00;;;;;;;;;;4954034;28;20496;-71
2023/07/31 14:33:55;;;;;;;4.95;1.95;;;;;;;;;;4953005;28;20404;-71
2023/07/31 14:36:21;;;;;;;2.20;1.90;;;;;;;;;;4959072;28;20018;-70
2023/07/31 14:38:48;;;;;;;2.17;1.70;;;;;;;;;;4942860;28;20059;-69
2023/07/31 14:41:15;;;;;;;3.35;1.73;;;;;;;;;;4953405;29;20752;-71
2023/07/31 14:43:41;;;;;;;2.92;1.98;;;;;;;;;;4937030;29;20396;-70
2023/07/31 14:46:08;;;;;;;2.70;1.73;;;;;;;;;;4935362;29;20039;-71
2023/07/31 14:48:34;;;;;;;4.53;2.00;;;;;;;;;;4932856;29;20020;-71
2023/07/31 14:51:00;;;;;;;3.70;1.95;;;;;;;;;;4934596;29;20049;-71
2023/07/31 14:53:27;;;;;;;7.25;1.90;;;;;;;;;;4933994;29;20544;-71
2023/07/31 14:55:53;;;;;;;2.85;1.80;;;;;;;;;;4934559;29;20039;-71
2023/07/31 14:58:19;;;;;;;2.97;1.95;;;;;;;;;;4933758;29;20026;-71
2023/07/31 15:00:46;;;;;;;2.75;1.95;;;;;;;;;;4934012;29;20497;-71
2023/07/31 15:03:12;;;;;;;1.83;1.70;;;;;;;;;;4934103;29;20082;-71
2023/07/31 15:05:38;;;;;;;2.25;1.90;;;;;;;;;;4934333;29;20042;-71
2023/07/31 15:08:05;;;;;;;4.60;2.08;;;;;;;;;;4934563;29;20028;-71
2023/07/31 15:10:32;;;;;;;6.05;2.30;;;;;;;;;;4935319;29;20396;-70
2023/07/31 15:12:58;;;;;;;8.18;2.40;;;;;;;;;;4934987;29;20027;-71
2023/07/31 15:15:24;;;;;;;3.22;2.17;;;;;;;;;;4935529;29;20020;-71
2023/07/31 15:17:51;;;;;;;3.55;2.15;;;;;;;;;;4935060;29;20031;-71
2023/07/31 15:20:17;;;;;;;3.17;2.08;;;;;;;;;;4935116;29;20043;-71
2023/07/31 15:22:43;;;;;;;4.25;2.30;;;;;;;;;;4935040;29;20046;-71
2023/07/31 15:25:10;;;;;;;6.07;2.17;;;;;;;;;;4934837;29;20026;-71
2023/07/31 15:27:36;;;;;;;3.95;2.25;;;;;;;;;;4934195;29;20036;-71
2023/07/31 15:30:04;;;;;;;3.05;2.08;;;;;;;;;;4935019;29;20362;-71
2023/07/31 15:32:31;;;;;;;2.30;1.92;;;;;;;;;;4933932;29;20392;-70
2023/07/31 15:34:57;;;;;;;4.25;2.10;;;;;;;;;;4934883;29;20520;-71
2023/07/31 15:37:24;;;;;;;4.28;2.15;;;;;;;;;;4947806;29;20030;-71
2023/07/31 15:39:50;;;;;;;5.50;2.20;;;;;;;;;;4953958;28;20042;-71
2023/07/31 15:42:16;;;;;;;4.28;2.28;;;;;;;;;;4954180;29;20217;-70
2023/07/31 15:44:43;;;;;;;3.00;1.98;;;;;;;;;;4954118;29;20041;-71
2023/07/31 15:47:09;;;;;;;3.63;2.00;;;;;;;;;;4952449;29;20476;-71
2023/07/31 15:49:35;;;;;;;3.45;1.85;;;;;;;;;;4954122;29;20031;-71
2023/07/31 15:52:02;;;;;;;3.67;2.22;;;;;;;;;;4954160;29;20019;-71
2023/07/31 15:54:28;;;;;;;5.72;1.83;;;;;;;;;;4953253;29;20027;-71
2023/07/31 15:56:54;;;;;;;4.10;2.30;;;;;;;;;;4953051;29;20491;-71
2023/07/31 15:59:21;;;;;;;4.45;2.15;;;;;;;;;;4953312;28;20480;-71
2023/07/31 16:01:47;;;;;;;2.83;2.03;;;;;;;;;;4953543;29;20031;-71
2023/07/31 16:04:13;;;;;;;3.45;1.90;;;;;;;;;;4953493;28;20030;-71
2023/07/31 16:06:40;;;;;;;3.80;2.65;;;;;;;;;;4956727;29;20033;-71
2023/07/31 16:09:06;;;;;;;3.92;2.10;;;;;;;;;;4958031;28;20389;-71
2023/07/31 16:11:33;;;;;;;3.05;2.13;;;;;;;;;;4958196;29;20023;-71
2023/07/31 16:14:01;;;;;;;4.80;2.20;;;;;;;;;;4958304;28;20090;-71
2023/07/31 16:16:28;;;;;;;3.78;2.20;;;;;;;;;;4956152;29;20031;-71
2023/07/31 16:18:54;;;;;;;13.95;2.53;;;;;;;;;;4957997;29;20028;-71
2023/07/31 16:21:20;;;;;;;3.28;2.03;;;;;;;;;;4957825;29;20476;-71
2023/07/31 16:23:47;;;;;;;2.38;1.90;;;;;;;;;;4957837;28;20035;-71
2023/07/31 16:26:13;;;;;;;3.40;2.30;;;;;;;;;;4957643;28;20484;-71
2023/07/31 16:28:39;;;;;;;3.35;1.83;;;;;;;;;;4957808;29;20042;-71
2023/07/31 16:31:06;;;;;;;4.53;2.22;;;;;;;;;;4957465;29;20027;-71
2023/07/31 16:33:33;;;;;;;3.80;2.40;;;;;;;;;;4957580;29;20047;-71
2023/07/31 16:35:59;;;;;;;4.88;2.40;;;;;;;;;;4957399;29;20500;-71
2023/07/31 16:38:25;;;;;;;4.78;2.30;;;;;;;;;;4957278;29;20387;-71
2023/07/31 16:40:52;;;;;;;3.67;2.20;;;;;;;;;;4957283;28;20109;-71
2023/07/31 16:43:18;;;;;;;3.30;2.05;;;;;;;;;;4957564;28;20103;-71
2023/07/31 16:45:45;;;;;;;3.08;1.98;;;;;;;;;;4957041;29;20070;-70
2023/07/31 16:48:11;;;;;;;4.88;2.42;;;;;;;;;;4957502;29;20019;-70
2023/07/31 16:50:37;;;;;;;3.22;2.10;;;;;;;;;;4957401;29;20054;-71
2023/07/31 16:53:03;;;;;;;4.50;2.53;;;;;;;;;;4957051;29;20024;-71
2023/07/31 16:55:30;;;;;;;3.47;2.17;;;;;;;;;;4957301;29;20031;-70
2023/07/31 16:57:56;;;;;;;4.05;2.03;;;;;;;;;;4957157;28;20031;-70
2023/07/31 17:00:23;;;;;;;2.75;2.20;;;;;;;;;;4956579;28;20078;-70
2023/07/31 17:02:49;;;;;;;3.58;2.35;;;;;;;;;;4956953;28;20031;-70
2023/07/31 17:05:15;;;;;;;3.28;2.58;;;;;;;;;;4956916;29;20049;-70
2023/07/31 17:07:42;;;;;;;4.25;2.45;;;;;;;;;;4956759;29;20019;-70
2023/07/31 17:10:08;;;;;;;2.97;2.30;;;;;;;;;;4956911;29;20082;-70
2023/07/31 17:12:35;;;;;;;4.70;2.20;;;;;;;;;;4956646;29;20027;-70
2023/07/31 17:15:01;;;;;;;4.25;2.20;;;;;;;;;;4956786;29;20035;-71
2023/07/31 17:17:28;;;;;;;3.08;2.28;;;;;;;;;;4955042;28;20027;-70
2023/07/31 17:19:54;;;;;;;3.78;2.10;;;;;;;;;;4956501;28;20039;-71
2023/07/31 17:22:20;;;;;;;4.55;2.53;;;;;;;;;;4956916;29;20016;-71
2023/07/31 17:24:47;;;;;;;3.55;2.20;;;;;;;;;;4956472;29;20024;-71
2023/07/31 17:27:13;;;;;;;6.30;2.55;;;;;;;;;;4956785;29;20038;-71
2023/07/31 17:29:39;;;;;;;3.28;2.42;;;;;;;;;;4956106;28;20415;-71
2023/07/31 17:32:06;;;;;;;2.88;2.20;;;;;;;;;;4956601;29;20027;-71
2023/07/31 17:34:32;;;;;;;4.97;2.90;;;;;;;;;;4956400;29;20051;-71
2023/07/31 17:37:00;;;;;;;4.45;2.50;;;;;;;;;;4956090;28;20093;-71
2023/07/31 17:39:26;;;;;;;6.32;2.85;;;;;;;;;;4956266;29;20476;-71
2023/07/31 17:41:54;;;;;;;4.32;2.72;;;;;;;;;;4956349;28;20022;-71
2023/07/31 17:44:20;;;;;;;6.63;2.92;;;;;;;;;;4955989;29;20034;-71
2023/07/31 17:46:48;;;;;;;4.18;2.63;;;;;;;;;;4956439;28;20035;-71
2023/07/31 17:49:15;;;;;;;4.30;2.75;;;;;;;;;;4956580;28;20017;-71
2023/07/31 17:51:41;;;;;;;3.47;2.80;;;;;;;;;;4956485;29;20028;-71
2023/07/31 17:54:08;;;;;;;3.95;2.80;;;;;;;;;;4956165;29;20572;-71
2023/07/31 17:56:37;;;;;;;4.63;2.65;;;;;;;;;;4955156;29;20029;-71
2023/07/31 17:59:05;;;;;;;3.33;2.45;;;;;;;;;;4955460;28;20540;-71
2023/07/31 18:01:31;;;;;;;3.63;2.30;;;;;;;;;;4956057;29;20373;-71
2023/07/31 18:03:58;;;;;;;5.20;2.30;;;;;;;;;;4955744;29;20407;-71
2023/07/31 18:06:24;;;;;;;4.32;2.65;;;;;;;;;;4956063;29;20050;-71
2023/07/31 18:08:50;;;;;;;4.43;2.70;;;;;;;;;;4955963;28;20019;-71
2023/07/31 18:11:19;;;;;;;3.95;2.90;;;;;;;;;;4955815;29;20055;-71
2023/07/31 18:13:47;;;;;;;3.47;2.70;;;;;;;;;;4955988;29;20019;-71
2023/07/31 18:16:14;;;;;;;3.65;2.80;;;;;;;;;;4955641;28;20027;-71
2023/07/31 18:18:41;;;;;;;4.40;2.78;;;;;;;;;;4955784;29;20387;-71
2023/07/31 18:21:07;;;;;;;4.80;2.90;;;;;;;;;;4955538;28;20065;-71
2023/07/31 18:23:33;;;;;;;4.65;2.80;;;;;;;;;;4955463;28;20023;-71
2023/07/31 18:26:00;;;;;;;4.32;2.90;;;;;;;;;;4955256;28;20041;-71
2023/07/31 18:28:26;;;;;;;4.03;3.08;;;;;;;;;;4954804;28;20416;-71
2023/07/31 18:30:59;;;;;;;4.28;3.08;;;;;;;;;;4955520;28;20027;-71
2023/07/31 18:33:25;;;;;;;3.47;2.90;;;;;;;;;;4955371;29;20049;-71
2023/07/31 18:35:52;;;;;;;2.95;2.63;;;;;;;;;;4955750;29;20027;-71
2023/07/31 18:38:18;;;;;;;6.70;2.67;;;;;;;;;;4954985;28;20066;-71
2023/07/31 18:40:44;;;;;;;3.78;3.20;;;;;;;;;;4954898;29;20035;-71
2023/07/31 18:43:11;;;;;;;4.05;2.97;;;;;;;;;;4955122;29;20033;-70
2023/07/31 18:45:37;;;;;;;4.70;3.05;;;;;;;;;;4955319;29;20035;-70
2023/07/31 18:48:03;;;;;;;4.38;3.05;;;;;;;;;;4955067;29;20502;-71
2023/07/31 18:50:29;;;;;;;3.90;2.78;;;;;;;;;;4955391;29;20023;-71
2023/07/31 18:52:56;;;;;;;4.15;2.90;;;;;;;;;;4955182;29;20023;-71
2023/07/31 18:55:24;;;;;;;4.53;3.00;;;;;;;;;;4954677;28;20031;-71
2023/07/31 18:57:51;;;;;;;5.20;3.10;;;;;;;;;;4955161;29;20031;-71
2023/07/31 19:00:17;;;;;;;3.28;2.55;;;;;;;;;;4954907;29;20046;-71
2023/07/31 19:02:43;;;;;;;4.57;3.13;;;;;;;;;;4955054;28;20399;-71
2023/07/31 19:05:10;;;;;;;3.33;2.75;;;;;;;;;;4954804;29;20029;-71
2023/07/31 19:07:36;;;;;;;3.10;2.70;;;;;;;;;;4954919;28;20020;-71
2023/07/31 19:10:03;;;;;;;3.80;2.97;;;;;;;;;;4954569;28;20038;-71
2023/07/31 19:12:30;;;;;;;3.45;2.63;;;;;;;;;;4955060;28;20031;-71
2023/07/31 19:14:57;;;;;;;3.80;3.00;;;;;;;;;;4954881;28;20211;-70
2023/07/31 19:17:23;;;;;;;4.50;3.30;;;;;;;;;;4954866;28;20030;-71
2023/07/31 19:19:49;;;;;;;3.50;2.90;;;;;;;;;;4954644;29;20036;-71
2023/07/31 19:22:16;;;;;;;3.47;2.55;;;;;;;;;;4954668;29;20506;-71
2023/07/31 19:24:42;;;;;;;4.28;2.97;;;;;;;;;;4954739;29;20034;-71
2023/07/31 19:27:09;;;;;;;4.00;3.20;;;;;;;;;;4954555;29;20019;-71
2023/07/31 19:29:35;;;;;;;4.18;3.20;;;;;;;;;;4954472;29;20037;-71
2023/07/31 19:32:01;;;;;;;3.72;3.00;;;;;;;;;;4954607;29;20027;-71
2023/07/31 19:34:28;;;;;;;3.83;2.70;;;;;;;;;;4954595;29;20048;-70
2023/07/31 19:36:54;;;;;;;3.15;2.55;;;;;;;;;;4954263;29;20019;-71
2023/07/31 19:39:21;;;;;;;3.70;2.75;;;;;;;;;;4956177;28;20035;-71
2023/07/31 19:41:48;;;;;;;3.97;2.55;;;;;;;;;;4961048;28;20023;-70
2023/07/31 19:44:14;;;;;;;3.03;2.63;;;;;;;;;;4961056;29;20023;-71
2023/07/31 19:46:40;;;;;;;4.38;3.03;;;;;;;;;;4961348;29;20090;-71
2023/07/31 19:49:06;;;;;;;3.45;2.90;;;;;;;;;;4959419;29;20431;-71
2023/07/31 19:51:33;;;;;;;3.90;3.30;;;;;;;;;;4959572;28;20027;-71
2023/07/31 19:53:59;;;;;;;3.70;2.95;;;;;;;;;;4960272;28;20395;-71
2023/07/31 19:56:25;;;;;;;4.05;3.22;;;;;;;;;;4960746;28;20502;-71
2023/07/31 19:58:52;;;;;;;3.83;2.80;;;;;;;;;;4960647;28;20027;-71
2023/07/31 20:01:19;;;;;;;3.50;3.00;;;;;;;;;;4960829;28;20035;-71
2023/07/31 20:03:45;;;;;;;3.97;3.00;;;;;;;;;;4960634;28;20023;-71
2023/07/31 20:06:11;;;;;;;3.90;2.97;;;;;;;;;;4960672;28;20024;-71
2023/07/31 20:08:38;;;;;;;4.03;3.10;;;;;;;;;;4960356;28;20027;-71
2023/07/31 20:11:04;;;;;;;4.03;2.92;;;;;;;;;;4960946;29;20027;-71
2023/07/31 20:13:31;;;;;;;3.53;2.92;;;;;;;;;;4960528;28;20518;-71
2023/07/31 20:15:58;;;;;;;4.28;2.60;;;;;;;;;;4960704;28;20038;-71
2023/07/31 20:18:24;;;;;;;4.15;3.03;;;;;;;;;;4960525;28;20035;-71
2023/07/31 20:20:50;;;;;;;5.28;3.05;;;;;;;;;;4960383;28;20039;-71
2023/07/31 20:23:16;;;;;;;4.03;2.70;;;;;;;;;;4960000;28;20038;-71
2023/07/31 20:25:43;;;;;;;3.13;2.83;;;;;;;;;;4960373;28;20439;-71
2023/07/31 20:28:09;;;;;;;4.80;3.35;;;;;;;;;;4960433;28;20029;-71
2023/07/31 20:30:35;;;;;;;3.72;3.13;;;;;;;;;;4960452;28;20026;-71
2023/07/31 20:33:02;;;;;;;4.80;3.25;;;;;;;;;;4960587;29;20042;-71
2023/07/31 20:35:28;;;;;;;3.75;2.70;;;;;;;;;;4960487;29;20431;-71
2023/07/31 20:37:54;;;;;;;4.30;2.92;;;;;;;;;;4959724;28;20023;-70
2023/07/31 20:40:21;;;;;;;3.60;2.88;;;;;;;;;;4960335;28;20041;-71
2023/07/31 20:42:57;;;;;;;3.50;2.78;;;;;;;;;;4960130;28;20480;-71
2023/07/31 20:45:25;;;;;;;4.75;3.47;;;;;;;;;;4960269;29;20105;-71
2023/07/31 20:47:51;;;;;;;3.55;3.10;;;;;;;;;;4960290;29;20027;-71
2023/07/31 20:50:18;;;;;;;5.05;3.40;;;;;;;;;;4959575;28;20042;-71
2023/07/31 20:52:44;;;;;;;4.07;3.33;;;;;;;;;;4956504;28;20035;-71
2023/07/31 20:55:10;;;;;;;4.53;3.28;;;;;;;;;;4956276;29;20019;-71
2023/07/31 20:57:37;;;;;;;5.18;2.80;;;;;;;;;;4957215;28;20473;-71
2023/07/31 21:00:03;;;;;;;4.43;3.85;;;;;;;;;;4957186;29;20049;-71
2023/07/31 21:02:30;;;;;;;4.10;3.20;;;;;;;;;;4957003;29;20498;-70
2023/07/31 21:04:56;;;;;;;5.20;3.58;;;;;;;;;;4957060;29;20027;-71
2023/07/31 21:07:22;;;;;;;5.38;3.85;;;;;;;;;;4956624;29;20373;-70
2023/07/31 21:09:49;;;;;;;4.18;3.30;;;;;;;;;;4957070;28;20057;-71
2023/07/31 21:12:15;;;;;;;3.97;3.15;;;;;;;;;;4956911;29;20369;-71
2023/07/31 21:14:42;;;;;;;4.53;3.38;;;;;;;;;;4956745;29;20039;-71